Time;durP1;ratioP1;P1;durP2;ratioP2;P2;SDS_P1;SDS_P2;PMS_P1;PMS_P2;Temp;Humidity;BMP_temperature;BMP_pressure;BME280_temperature;BME280_humidity;BME280_pressure;Samples;Min_cycle;Max_cycle;Signal;HPM_P1;HPM_P2
2021/08/07 00:02:11;;;;;;;6.37;3.10;;;;;;;17.18;100.00;99736.88;1709354;83;21103;-88
2021/08/07 00:04:38;;;;;;;5.05;3.20;;;;;;;17.22;100.00;99740.33;1716257;82;21089;-94
2021/08/07 00:07:06;;;;;;;6.75;3.15;;;;;;;17.23;100.00;99743.31;1721704;83;21052;-93
2021/08/07 00:09:33;;;;;;;5.42;2.65;;;;;;;17.24;100.00;99747.70;1711909;83;21049;-88
2021/08/07 00:12:00;;;;;;;6.92;2.70;;;;;;;17.25;100.00;99749.30;1718285;82;21057;-93
2021/08/07 00:14:27;;;;;;;6.28;3.37;;;;;;;17.25;100.00;99732.73;1714588;82;21083;-88
2021/08/07 00:16:55;;;;;;;5.05;2.90;;;;;;;17.25;100.00;99736.88;1729813;81;21063;-94
2021/08/07 00:19:22;;;;;;;3.92;2.50;;;;;;;17.25;100.00;99731.36;1718828;82;21576;-88
2021/08/07 00:21:49;;;;;;;3.87;2.80;;;;;;;17.25;100.00;99740.44;1729342;81;21052;-93
2021/08/07 00:24:16;;;;;;;4.30;2.80;;;;;;;17.26;100.00;99742.63;1723830;83;21083;-88
2021/08/07 00:26:43;;;;;;;5.90;2.85;;;;;;;17.26;100.00;99739.86;1720260;83;21096;-92
2021/08/07 00:29:09;;;;;;;3.98;2.52;;;;;;;17.26;100.00;99739.86;1724117;81;20992;-93
2021/08/07 00:31:37;;;;;;;7.17;3.25;;;;;;;17.26;100.00;99746.21;1723458;83;21063;-93
2021/08/07 00:34:04;;;;;;;4.25;2.50;;;;;;;17.26;100.00;99745.38;1709198;82;21047;-87
2021/08/07 00:36:31;;;;;;;5.72;2.85;;;;;;;17.26;100.00;99753.67;1708674;82;21110;-87
2021/08/07 00:38:58;;;;;;;4.60;2.98;;;;;;;17.25;100.00;99749.30;1701950;82;21522;-92
2021/08/07 00:41:25;;;;;;;5.42;2.80;;;;;;;17.23;100.00;99747.45;1731811;82;21083;-93
2021/08/07 00:43:52;;;;;;;5.75;2.87;;;;;;;17.23;100.00;99750.22;1732169;82;21099;-93
2021/08/07 00:46:21;;;;;;;5.60;3.72;;;;;;;17.22;100.00;99752.75;1730534;81;21087;-88
2021/08/07 00:48:49;;;;;;;5.53;2.98;;;;;;;17.19;100.00;99747.34;1729837;82;21103;-94
2021/08/07 00:51:19;;;;;;;7.20;3.42;;;;;;;17.16;100.00;99743.31;1710826;82;21083;-88
2021/08/07 00:53:46;;;;;;;3.75;2.67;;;;;;;17.15;100.00;99740.30;1728497;82;21116;-87
2021/08/07 00:56:14;;;;;;;8.00;3.20;;;;;;;17.14;100.00;99738.70;1735137;82;21036;-88
2021/08/07 00:58:43;;;;;;;4.97;2.62;;;;;;;17.14;100.00;99734.56;1712014;82;21035;-93
2021/08/07 01:01:13;;;;;;;6.35;2.77;;;;;;;17.13;100.00;99734.89;1712582;82;21076;-93
2021/08/07 01:03:52;;;;;;;4.15;2.72;;;;;;;17.12;100.00;99737.42;1715505;82;21122;-94
2021/08/07 01:06:41;;;;;;;4.28;2.85;;;;;;;17.11;100.00;99732.48;1740720;81;21074;-94
2021/08/07 01:09:23;;;;;;;5.22;3.25;;;;;;;17.09;100.00;99736.16;1707272;82;21475;-88
2021/08/07 01:12:03;;;;;;;7.10;2.87;;;;;;;17.08;100.00;99733.72;1674666;84;21044;-93
2021/08/07 01:14:35;;;;;;;7.03;2.87;;;;;;;17.07;100.00;99737.64;1669581;82;21066;-89
2021/08/07 01:17:06;;;;;;;3.35;2.35;;;;;;;17.06;100.00;99733.25;1705921;82;21040;-94
2021/08/07 01:19:57;;;;;;;3.52;2.17;;;;;;;17.04;100.00;99739.12;1729944;82;21039;-94
2021/08/07 01:22:30;;;;;;;5.00;2.92;;;;;;;17.03;100.00;99735.32;1745460;82;21061;-95
2021/08/07 01:25:04;;;;;;;4.72;2.90;;;;;;;17.02;100.00;99737.86;1723678;82;21072;-89
2021/08/07 01:27:38;;;;;;;4.90;3.40;;;;;;;17.02;100.00;99746.14;1731795;82;21047;-94
2021/08/07 01:30:12;;;;;;;5.90;3.17;;;;;;;17.02;100.00;99753.04;1722537;81;21478;-89
2021/08/07 01:32:40;;;;;;;9.90;4.03;;;;;;;17.00;100.00;99757.50;1747771;81;21051;-95
2021/08/07 01:35:09;;;;;;;5.00;2.80;;;;;;;17.00;100.00;99752.56;1754776;81;21075;-89
2021/08/07 01:37:37;;;;;;;7.55;3.37;;;;;;;17.00;100.00;99756.13;1708125;81;21103;-94
2021/08/07 01:40:10;;;;;;;5.25;2.90;;;;;;;17.01;100.00;99761.87;1664441;81;21538;-94
2021/08/07 01:42:44;;;;;;;4.45;2.85;;;;;;;17.02;100.00;99759.94;1731654;81;21036;-94
2021/08/07 01:45:12;;;;;;;3.62;2.42;;;;;;;16.99;100.00;99755.91;1730968;82;21048;-89
2021/08/07 01:47:57;;;;;;;4.33;2.87;;;;;;;16.98;100.00;99754.27;1721036;82;21067;-94
2021/08/07 01:50:33;;;;;;;4.97;2.80;;;;;;;16.99;100.00;99751.77;1701193;84;21059;-95
2021/08/07 01:53:03;;;;;;;4.67;2.75;;;;;;;16.98;100.00;99748.75;1752091;81;21106;-94
2021/08/07 01:55:54;;;;;;;7.67;2.95;;;;;;;16.98;100.00;99744.61;1761540;81;21852;-94
2021/08/07 01:58:33;;;;;;;6.62;3.08;;;;;;;16.97;100.00;99752.67;1762013;81;21360;-94
2021/08/07 02:01:01;;;;;;;5.42;2.75;;;;;;;16.97;100.00;99748.53;1743997;81;21245;-89
2021/08/07 02:03:31;;;;;;;2.77;2.58;;;;;;;16.96;100.00;99756.01;1761054;81;21482;-94
2021/08/07 02:05:58;;;;;;;3.35;2.40;;;;;;;16.94;100.00;99750.59;1761350;81;21031;-89
2021/08/07 02:08:25;;;;;;;5.87;2.75;;;;;;;16.91;100.00;99758.15;1712316;81;21517;-89
2021/08/07 02:10:53;;;;;;;3.98;2.77;;;;;;;16.90;100.00;99764.83;1747288;81;20984;-89
2021/08/07 02:13:21;;;;;;;3.75;2.62;;;;;;;16.89;100.00;99771.47;1732178;81;21122;-94
2021/08/07 02:15:50;;;;;;;3.87;2.65;;;;;;;16.89;100.00;99770.92;1758191;81;20989;-89
2021/08/07 02:18:21;;;;;;;7.22;3.12;;;;;;;16.85;100.00;99769.17;1762084;81;21539;-89
2021/08/07 02:20:53;;;;;;;3.70;2.40;;;;;;;16.81;100.00;99767.65;1727281;82;21071;-94
2021/08/07 02:23:23;;;;;;;3.62;2.42;;;;;;;16.79;100.00;99760.31;1732035;82;21052;-89
2021/08/07 02:25:57;;;;;;;5.70;3.00;;;;;;;16.78;100.00;99761.44;1762024;81;21047;-89
2021/08/07 02:28:25;;;;;;;4.22;2.52;;;;;;;16.76;100.00;99764.52;1748968;81;21088;-90
2021/08/07 02:30:55;;;;;;;4.28;2.90;;;;;;;16.76;100.00;99770.03;1679979;84;21114;-88
2021/08/07 02:33:23;;;;;;;5.20;3.12;;;;;;;16.75;100.00;99770.36;1654851;83;21055;-89
2021/08/07 02:35:51;;;;;;;4.90;3.08;;;;;;;16.74;100.00;99757.14;1709321;82;21084;-95
2021/08/07 02:38:22;;;;;;;5.95;4.33;;;;;;;16.73;100.00;99755.52;1708546;82;21076;-94
2021/08/07 02:40:49;;;;;;;6.37;3.58;;;;;;;16.72;100.00;99747.59;1709167;80;21107;-89
2021/08/07 02:43:17;;;;;;;10.45;3.08;;;;;;;16.67;100.00;99753.31;1735895;82;21533;-94
2021/08/07 02:45:44;;;;;;;5.22;2.65;;;;;;;16.66;100.00;99764.09;1713731;82;20993;-95
2021/08/07 02:48:11;;;;;;;4.10;2.77;;;;;;;16.65;100.00;99760.54;1700729;82;21108;-94
2021/08/07 02:50:39;;;;;;;4.90;2.83;;;;;;;16.64;100.00;99761.70;1707744;82;21127;-88
2021/08/07 02:53:09;;;;;;;4.35;2.70;;;;;;;16.62;100.00;99768.69;1722689;82;21535;-94
2021/08/07 02:55:36;;;;;;;4.83;2.92;;;;;;;16.60;100.00;99773.73;1711390;82;22314;-89
2021/08/07 02:58:07;;;;;;;4.03;2.62;;;;;;;16.60;100.00;99770.97;1737814;82;21041;-89
2021/08/07 03:00:36;;;;;;;3.33;2.60;;;;;;;16.57;100.00;99775.22;1717472;82;21080;-88
2021/08/07 03:03:03;;;;;;;6.72;2.90;;;;;;;16.57;100.00;99786.25;1737934;82;21068;-88
2021/08/07 03:05:30;;;;;;;6.10;2.80;;;;;;;16.54;100.00;99789.66;1733018;82;21128;-94
2021/08/07 03:07:59;;;;;;;4.15;2.80;;;;;;;16.52;100.00;99790.58;1738794;78;21472;-88
2021/08/07 03:10:26;;;;;;;4.83;2.83;;;;;;;16.49;100.00;99788.47;1731587;81;21089;-88
2021/08/07 03:12:54;;;;;;;5.97;3.15;;;;;;;16.47;100.00;99781.13;1738106;82;21503;-88
2021/08/07 03:15:22;;;;;;;3.67;2.33;;;;;;;16.45;100.00;99788.34;1683803;83;21065;-95
2021/08/07 03:17:51;;;;;;;5.17;2.87;;;;;;;16.44;100.00;99792.23;1722526;82;21044;-88
2021/08/07 03:20:19;;;;;;;4.40;2.65;;;;;;;16.44;100.00;99790.85;1743684;81;21077;-94
2021/08/07 03:22:46;;;;;;;4.47;3.37;;;;;;;16.43;100.00;99786.49;1717259;82;21575;-95
2021/08/07 03:25:15;;;;;;;5.12;3.42;;;;;;;16.42;100.00;99784.89;1729196;82;21080;-95
2021/08/07 03:27:43;;;;;;;6.00;2.90;;;;;;;16.41;100.00;99791.53;1726413;82;21037;-94
2021/08/07 03:30:11;;;;;;;6.55;3.10;;;;;;;16.40;100.00;99786.37;1736244;82;21523;-90
2021/08/07 03:32:38;;;;;;;7.58;2.77;;;;;;;16.41;100.00;99789.34;1700482;83;21095;-95
2021/08/07 03:35:07;;;;;;;4.78;2.95;;;;;;;16.41;100.00;99791.53;1736172;81;21014;-89
2021/08/07 03:37:34;;;;;;;7.17;2.87;;;;;;;16.43;100.00;99788.45;1731861;82;21057;-94
2021/08/07 03:40:01;;;;;;;6.78;3.72;;;;;;;16.48;100.00;99793.77;1708808;82;21060;-93
2021/08/07 03:42:29;;;;;;;8.48;3.52;;;;;;;16.52;100.00;99792.77;1711592;82;21029;-89
2021/08/07 03:44:56;;;;;;;4.92;3.42;;;;;;;16.60;100.00;99785.56;1717092;82;21064;-89
2021/08/07 03:47:23;;;;;;;5.22;3.00;;;;;;;16.70;100.00;99780.22;1702950;83;21635;-89
2021/08/07 03:49:50;;;;;;;5.80;2.50;;;;;;;16.81;100.00;99768.23;1714722;82;21103;-95
2021/08/07 03:52:18;;;;;;;5.72;3.47;;;;;;;16.90;100.00;99770.34;1693195;82;21024;-94
2021/08/07 03:54:46;;;;;;;8.10;4.42;;;;;;;17.02;100.00;99768.22;1705045;83;21091;-89
2021/08/07 03:57:13;;;;;;;6.25;3.35;;;;;;;17.12;100.00;99774.69;1716705;83;21080;-95
2021/08/07 03:59:40;;;;;;;7.47;3.10;;;;;;;17.20;100.00;99770.45;1709265;83;21028;-90
2021/08/07 04:02:07;;;;;;;8.73;3.58;;;;;;;17.29;100.00;99769.58;1711228;83;21101;-95
2021/08/07 04:04:34;;;;;;;5.83;3.75;;;;;;;17.35;100.00;99769.58;1699666;83;21599;-91
2021/08/07 04:07:01;;;;;;;6.47;3.52;;;;;;;17.42;100.00;99780.87;1711243;82;21072;-89
2021/08/07 04:09:32;;;;;;;6.15;3.55;;;;;;;17.49;100.00;99785.27;1708678;82;21132;-90
2021/08/07 04:12:00;;;;;;;6.08;3.17;;;;;;;17.52;100.00;99787.34;1684313;82;21022;-89
2021/08/07 04:14:29;;;;;;;10.00;3.95;;;;;;;17.56;100.00;99784.13;1730592;82;21500;-90
2021/08/07 04:16:56;;;;;;;5.78;3.83;;;;;;;17.59;100.00;99788.97;1714842;82;21068;-93
2021/08/07 04:19:28;;;;;;;6.70;4.37;;;;;;;17.61;100.00;99796.34;1688537;83;21676;-95
2021/08/07 04:21:57;;;;;;;8.98;4.50;;;;;;;17.66;100.00;99798.08;1719508;82;21080;-91
2021/08/07 04:24:25;;;;;;;12.03;5.20;;;;;;;17.70;100.00;99800.95;1692498;83;21079;-90
2021/08/07 04:26:52;;;;;;;12.33;5.55;;;;;;;17.71;100.00;99792.33;1721014;82;21076;-90
2021/08/07 04:29:21;;;;;;;11.70;5.95;;;;;;;17.72;100.00;99801.42;1708673;82;21084;-95
2021/08/07 04:31:51;;;;;;;13.03;6.03;;;;;;;17.72;100.00;99809.13;1670269;82;21075;-93
2021/08/07 04:34:20;;;;;;;13.75;6.85;;;;;;;17.75;100.00;99818.10;1739159;78;21485;-95
2021/08/07 04:36:47;;;;;;;12.05;6.55;;;;;;;17.77;100.00;99817.77;1735714;82;21578;-90
2021/08/07 04:39:17;;;;;;;13.08;6.95;;;;;;;17.79;100.00;99823.77;1738266;82;21093;-89
2021/08/07 04:41:46;;;;;;;13.48;6.50;;;;;;;17.83;100.00;99838.55;1730130;78;21587;-95
2021/08/07 04:44:13;;;;;;;14.28;7.55;;;;;;;17.87;100.00;99845.57;1718310;82;20998;-90
2021/08/07 04:46:41;;;;;;;15.30;7.78;;;;;;;17.89;100.00;99850.98;1747007;81;21034;-90
2021/08/07 04:49:08;;;;;;;16.75;8.73;;;;;;;17.93;100.00;99856.65;1727049;82;21064;-91
2021/08/07 04:51:34;;;;;;;17.23;8.93;;;;;;;17.97;100.00;99865.27;1710842;82;21063;-94
2021/08/07 04:54:04;;;;;;;23.98;9.25;;;;;;;17.99;100.00;99860.21;1729586;82;21084;-90
2021/08/07 04:56:31;;;;;;;19.45;9.63;;;;;;;18.01;100.00;99871.73;1729187;82;20942;-95
2021/08/07 04:58:59;;;;;;;21.70;9.95;;;;;;;18.03;100.00;99881.88;1718672;82;21066;-91
2021/08/07 05:01:27;;;;;;;22.02;9.78;;;;;;;18.05;100.00;99887.05;1705281;82;21121;-91
2021/08/07 05:03:54;;;;;;;22.82;10.60;;;;;;;18.07;100.00;99886.72;1702716;84;21072;-91
2021/08/07 05:06:21;;;;;;;27.60;11.48;;;;;;;18.10;100.00;99886.02;1707703;82;21073;-96
2021/08/07 05:08:55;;;;;;;25.65;10.88;;;;;;;18.12;100.00;99880.96;1732066;82;21144;-92
2021/08/07 05:11:21;;;;;;;20.45;9.63;;;;;;;18.12;100.00;99867.94;1681708;83;21144;-92
2021/08/07 05:13:49;;;;;;;21.37;10.58;;;;;;;18.11;100.00;99863.57;1671734;85;21048;-93
2021/08/07 05:16:17;;;;;;;27.13;10.25;;;;;;;18.10;100.00;99863.91;1697804;83;21084;-92
2021/08/07 05:18:45;;;;;;;21.80;10.48;;;;;;;18.10;100.00;99859.76;1699367;83;21073;-91
2021/08/07 05:21:12;;;;;;;23.25;9.55;;;;;;;18.11;100.00;99865.53;1704218;78;21104;-92
2021/08/07 05:23:40;;;;;;;21.93;10.03;;;;;;;18.14;100.00;99868.98;1686388;83;21093;-91
2021/08/07 05:26:10;;;;;;;20.27;10.25;;;;;;;18.15;100.00;99869.20;1730767;82;21060;-94
2021/08/07 05:28:37;;;;;;;24.82;11.43;;;;;;;18.16;100.00;99872.22;1723323;82;21483;-91
2021/08/07 05:31:04;;;;;;;23.75;11.40;;;;;;;18.18;100.00;99883.75;1725393;82;21222;-89
2021/08/07 05:33:31;;;;;;;23.75;10.00;;;;;;;18.21;100.00;99887.20;1726302;82;21667;-94
2021/08/07 05:35:58;;;;;;;19.62;9.40;;;;;;;18.22;100.00;99889.63;1714236;82;21605;-94
2021/08/07 05:38:26;;;;;;;20.57;9.38;;;;;;;18.25;100.00;99895.05;1695798;84;21021;-94
2021/08/07 05:40:53;;;;;;;21.25;10.82;;;;;;;18.29;100.00;99896.53;1708545;82;21557;-89
2021/08/07 05:43:21;;;;;;;24.32;10.53;;;;;;;18.33;100.00;99887.20;1722821;82;21886;-94
2021/08/07 05:45:49;;;;;;;21.75;10.25;;;;;;;18.39;100.00;99890.55;1705389;82;21104;-89
2021/08/07 05:48:18;;;;;;;20.57;10.08;;;;;;;18.47;100.00;99891.83;1714651;77;21061;-90
2021/08/07 05:50:46;;;;;;;23.02;11.40;;;;;;;18.57;100.00;99886.95;1675223;82;21072;-90
2021/08/07 05:53:13;;;;;;;21.95;8.83;;;;;;;18.68;100.00;99887.53;1720130;82;21084;-90
2021/08/07 05:55:42;;;;;;;19.67;9.50;;;;;;;18.82;100.00;99889.98;1715126;82;21167;-94
2021/08/07 05:58:11;;;;;;;17.27;8.60;;;;;;;18.96;100.00;99891.56;1722529;81;21088;-91
2021/08/07 06:00:40;;;;;;;17.73;8.45;;;;;;;19.08;100.00;99883.22;1677168;82;21064;-91
2021/08/07 06:03:08;;;;;;;20.43;9.85;;;;;;;19.22;100.00;99880.88;1715940;82;21083;-91
2021/08/07 06:05:37;;;;;;;18.92;8.65;;;;;;;19.42;100.00;99892.92;1728452;78;21002;-92
2021/08/07 06:08:07;;;;;;;12.98;6.97;;;;;;;19.58;100.00;99892.95;1731963;82;21096;-90
2021/08/07 06:10:38;;;;;;;14.18;7.33;;;;;;;19.78;100.00;99892.54;1745181;82;21065;-94
2021/08/07 06:13:09;;;;;;;18.32;8.65;;;;;;;19.95;100.00;99895.56;1738014;82;21321;-91
2021/08/07 06:15:36;;;;;;;17.17;8.23;;;;;;;19.99;100.00;99906.18;1709858;82;21139;-91
2021/08/07 06:18:04;;;;;;;17.10;8.63;;;;;;;19.95;100.00;99919.13;1708690;82;21045;-92
2021/08/07 06:20:33;;;;;;;19.00;8.38;;;;;;;19.89;100.00;99921.37;1685694;82;21131;-94
2021/08/07 06:23:03;;;;;;;17.48;7.40;;;;;;;19.87;100.00;99925.66;1745464;79;20970;-94
2021/08/07 06:25:30;;;;;;;16.67;8.25;;;;;;;19.89;100.00;99921.95;1745880;82;21021;-91
2021/08/07 06:27:59;;;;;;;15.48;7.40;;;;;;;19.96;100.00;99922.15;1711701;82;21152;-90
2021/08/07 06:30:28;;;;;;;12.90;6.97;;;;;;;20.00;100.00;99914.71;1716090;83;21104;-91
2021/08/07 06:32:58;;;;;;;16.52;7.85;;;;;;;20.05;100.00;99915.83;1731742;78;21069;-92
2021/08/07 06:35:25;;;;;;;14.20;7.25;;;;;;;20.13;100.00;99907.94;1712030;82;21113;-92
2021/08/07 06:37:54;;;;;;;16.73;8.13;;;;;;;20.22;100.00;99899.43;1697852;84;21531;-94
2021/08/07 06:40:21;;;;;;;16.48;6.97;;;;;;;20.38;100.00;99899.45;1697333;84;21064;-92
2021/08/07 06:42:48;;;;;;;14.47;7.65;;;;;;;20.61;100.00;99892.09;1723685;81;20982;-92
2021/08/07 06:45:35;;;;;;;12.63;6.33;;;;;;;20.85;100.00;99881.94;1751386;81;21291;-92
2021/08/07 06:48:05;;;;;;;11.85;6.12;;;;;;;21.09;100.00;99896.13;1740066;82;21091;-92
2021/08/07 06:50:34;;;;;;;10.35;5.05;;;;;;;21.26;100.00;99894.91;1750175;81;21021;-93
2021/08/07 06:53:02;;;;;;;8.63;4.62;;;;;;;21.44;100.00;99886.98;1739840;82;21140;-93
2021/08/07 06:55:29;;;;;;;6.58;4.20;;;;;;;21.57;100.00;99891.20;1753174;78;21126;-93
2021/08/07 06:57:56;;;;;;;5.72;3.02;;;;;;;21.73;100.00;99898.05;1714761;82;21088;-93
2021/08/07 07:00:24;;;;;;;9.15;3.08;;;;;;;21.85;100.00;99902.66;1728001;81;21088;-94
2021/08/07 07:02:51;;;;;;;5.33;3.25;;;;;;;21.95;100.00;99899.85;1698344;83;21052;-94
2021/08/07 07:05:19;;;;;;;3.40;2.58;;;;;;;21.98;100.00;99900.50;1698958;83;21075;-92
2021/08/07 07:07:46;;;;;;;4.37;3.10;;;;;;;22.01;100.00;99903.36;1722276;83;21059;-93
2021/08/07 07:10:14;;;;;;;4.08;2.75;;;;;;;22.09;100.00;99911.24;1715523;81;21063;-93
2021/08/07 07:12:41;;;;;;;2.87;2.33;;;;;;;22.09;100.00;99916.80;1740481;82;21032;-92
2021/08/07 07:15:10;;;;;;;3.75;2.55;;;;;;;21.96;100.00;99923.14;1697882;83;21021;-92
2021/08/07 07:21:09;;;;;;;7.17;2.65;;;;;;;21.66;100.00;99922.94;1660970;81;21291;-94
2021/08/07 07:23:37;;;;;;;2.65;2.15;;;;;;;21.53;100.00;99928.44;1635728;87;21105;-94
2021/08/07 07:26:04;;;;;;;2.62;2.40;;;;;;;21.50;100.00;99931.95;1628183;86;21245;-93
2021/08/07 07:28:33;;;;;;;2.60;1.92;;;;;;;21.51;100.00;99926.61;1645775;86;21121;-94
2021/08/07 07:31:00;;;;;;;3.80;1.98;;;;;;;21.55;100.00;99924.72;1625374;87;21097;-93
2021/08/07 07:33:28;;;;;;;2.17;1.98;;;;;;;21.59;100.00;99937.52;1624276;87;21105;-93
2021/08/07 07:35:56;;;;;;;4.35;2.58;;;;;;;21.59;100.00;99938.91;1653334;86;21128;-93
2021/08/07 07:38:23;;;;;;;2.20;1.72;;;;;;;21.60;100.00;99943.88;1653323;86;21100;-94
2021/08/07 07:40:50;;;;;;;5.08;2.52;;;;;;;21.67;100.00;99945.41;1632410;86;21096;-93
2021/08/07 07:43:20;;;;;;;5.30;2.25;;;;;;;21.79;100.00;99948.04;1653062;86;21485;-93
2021/08/07 07:45:50;;;;;;;2.30;1.77;;;;;;;21.92;100.00;99949.27;1591690;87;21154;-94
2021/08/07 07:48:17;;;;;;;4.17;2.08;;;;;;;22.01;100.00;99944.28;1631264;87;21121;-93
2021/08/07 07:50:46;;;;;;;3.37;2.25;;;;;;;22.10;100.00;99951.78;1610699;87;21113;-92
2021/08/07 07:53:13;;;;;;;3.35;2.20;;;;;;;22.18;100.00;99958.28;1611858;87;21181;-93
2021/08/07 07:55:41;;;;;;;5.12;2.10;;;;;;;22.29;100.00;99960.12;1632693;87;21619;-93
2021/08/07 07:58:08;;;;;;;4.33;2.35;;;;;;;22.44;100.00;99958.98;1633114;87;21126;-93
2021/08/07 08:00:37;;;;;;;2.58;2.10;;;;;;;22.59;98.45;99966.39;1633798;87;21089;-94
2021/08/07 08:03:03;;;;;;;3.20;2.62;;;;;;;22.72;96.84;99958.08;1610720;87;21109;-94
2021/08/07 08:05:38;;;;;;;2.98;2.27;;;;;;;22.88;96.25;99964.08;1626677;87;21509;-93
2021/08/07 08:08:06;;;;;;;2.92;2.20;;;;;;;23.03;95.93;99968.71;1653212;86;21080;-94
2021/08/07 08:10:35;;;;;;;3.30;2.40;;;;;;;23.17;95.20;99967.53;1632449;86;21151;-94
2021/08/07 08:13:04;;;;;;;3.80;1.87;;;;;;;23.31;94.20;99966.91;1653569;86;21092;-93
2021/08/07 08:15:37;;;;;;;3.37;2.35;;;;;;;23.36;93.04;99965.19;1599430;88;21125;-93
2021/08/07 08:18:02;;;;;;;5.20;2.72;;;;;;;23.42;93.05;99963.45;1625063;86;21145;-93
2021/08/07 08:20:29;;;;;;;3.37;1.85;;;;;;;23.45;92.60;99965.51;1634502;87;21096;-94
2021/08/07 08:22:56;;;;;;;2.42;2.10;;;;;;;23.50;91.73;99964.58;1655548;86;21104;-93
2021/08/07 08:25:25;;;;;;;3.35;2.02;;;;;;;23.59;91.10;99965.70;1627324;88;21108;-95
2021/08/07 08:27:52;;;;;;;2.60;1.65;;;;;;;23.63;89.80;99960.16;1654643;86;21572;-94
2021/08/07 08:30:20;;;;;;;2.65;1.80;;;;;;;23.61;89.59;99955.77;1630786;87;21095;-93
2021/08/07 08:32:47;;;;;;;3.55;2.25;;;;;;;23.65;89.94;99953.61;1627200;86;21697;-93
2021/08/07 08:35:14;;;;;;;3.22;1.70;;;;;;;23.65;89.77;99957.19;1632292;87;21105;-93
2021/08/07 08:37:42;;;;;;;3.10;1.80;;;;;;;23.59;89.86;99965.09;1649351;86;21563;-92
2021/08/07 08:40:09;;;;;;;2.92;1.98;;;;;;;23.65;90.12;99963.37;1635386;87;21089;-93
2021/08/07 08:42:36;;;;;;;3.60;1.72;;;;;;;23.71;88.82;99958.45;1636786;87;21432;-93
2021/08/07 08:45:05;;;;;;;3.37;2.00;;;;;;;23.79;88.81;99952.41;1637851;87;21606;-92
2021/08/07 08:47:35;;;;;;;4.72;2.05;;;;;;;23.88;89.13;99959.87;1633622;86;21042;-94
2021/08/07 08:50:03;;;;;;;3.87;2.12;;;;;;;23.99;89.15;99962.20;1630884;87;21101;-94
2021/08/07 08:52:32;;;;;;;2.15;1.60;;;;;;;24.09;88.22;99964.09;1649387;86;22096;-94
2021/08/07 08:54:59;;;;;;;2.50;2.10;;;;;;;24.07;85.88;99962.28;1623683;87;21028;-93
2021/08/07 08:57:27;;;;;;;2.75;1.50;;;;;;;24.02;85.14;99960.63;1624388;86;21131;-93
2021/08/07 08:59:55;;;;;;;2.08;1.60;;;;;;;23.99;83.68;99966.38;1626436;87;21098;-93
2021/08/07 09:02:22;;;;;;;1.65;1.45;;;;;;;24.01;83.17;99965.42;1655457;85;21461;-93
2021/08/07 09:04:49;;;;;;;2.20;1.50;;;;;;;24.04;81.67;99975.80;1628682;85;20968;-94
2021/08/07 09:10:48;;;;;;;2.50;1.50;;;;;;;24.29;80.50;99980.05;1715631;80;21233;-92
2021/08/07 09:13:19;;;;;;;1.72;1.30;;;;;;;24.46;79.61;99991.41;1714132;83;21170;-91
2021/08/07 09:15:48;;;;;;;2.10;1.17;;;;;;;24.53;79.29;99998.23;1725669;80;21070;-92
2021/08/07 09:18:20;;;;;;;2.25;1.62;;;;;;;24.59;78.65;99995.31;1695268;83;21054;-92
2021/08/07 09:20:53;;;;;;;1.67;1.57;;;;;;;24.71;77.46;100000.61;1722330;83;21043;-92
2021/08/07 09:23:33;;;;;;;1.65;1.47;;;;;;;24.80;76.91;99997.47;1695269;83;20996;-92
2021/08/07 09:26:15;;;;;;;2.10;1.60;;;;;;;24.93;78.46;100003.58;1742218;79;21177;-92
2021/08/07 09:28:54;;;;;;;6.83;1.27;;;;;;;25.03;75.97;99997.27;1800806;78;21159;-94
2021/08/07 09:31:25;;;;;;;1.37;1.20;;;;;;;24.98;75.32;100008.80;1800686;79;21070;-93
2021/08/07 09:34:19;;;;;;;1.90;1.42;;;;;;;24.91;75.94;100026.91;1800720;79;21069;-93
2021/08/07 09:36:57;;;;;;;6.58;1.55;;;;;;;24.99;75.72;100027.16;1799491;78;21062;-92
2021/08/07 09:39:39;;;;;;;0.70;0.70;;;;;;;25.04;74.26;100030.39;1800791;79;21553;-92
2021/08/07 09:42:08;;;;;;;;;;;;;;;25.09;74.84;100018.05;1803177;78;21049;-92
2021/08/07 09:44:36;;;;;;;1.45;1.22;;;;;;;25.25;73.27;100019.20;1756687;79;20196;-92
2021/08/07 09:47:12;;;;;;;2.35;1.32;;;;;;;25.35;72.22;100031.66;1769157;79;21525;-92
2021/08/07 09:49:42;;;;;;;2.15;1.57;;;;;;;25.47;70.24;100038.29;1769604;81;21124;-91
2021/08/07 09:52:10;;;;;;;1.15;1.00;;;;;;;25.51;69.52;100042.72;1768904;81;21443;-93
2021/08/07 09:54:45;;;;;;;1.17;1.02;;;;;;;25.49;69.31;100045.70;1756693;78;21060;-92
2021/08/07 09:57:28;;;;;;;1.77;1.30;;;;;;;25.54;69.71;100045.33;1718743;82;21083;-92
2021/08/07 09:59:55;;;;;;;1.52;0.90;;;;;;;25.67;69.52;100044.42;1746913;81;21072;-92
2021/08/07 10:02:31;;;;;;;1.10;1.00;;;;;;;25.79;68.67;100060.87;1749385;82;20969;-90
2021/08/07 10:05:11;;;;;;;1.20;1.10;;;;;;;25.86;67.77;100062.91;1718669;82;21085;-92
2021/08/07 10:08:26;;;;;;;2.42;1.22;;;;;;;25.94;66.74;100068.77;1659338;84;21234;-95
2021/08/07 10:10:59;;;;;;;1.05;0.85;;;;;;;26.11;66.75;100077.83;1686712;84;21107;-91
2021/08/07 10:13:29;;;;;;;0.70;0.70;;;;;;;26.23;65.93;100070.26;1643147;86;21098;-92
2021/08/07 10:16:01;;;;;;;1.32;1.10;;;;;;;26.32;65.70;100077.69;1640034;86;21088;-92
2021/08/07 10:18:32;;;;;;;1.55;1.30;;;;;;;26.42;64.46;100079.72;1625059;87;21147;-92
2021/08/07 10:21:04;;;;;;;7.03;1.20;;;;;;;26.45;64.40;100071.91;1656147;86;21214;-93
2021/08/07 10:23:32;;;;;;;1.87;1.12;;;;;;;26.44;65.53;100063.92;1605459;87;21169;-91
2021/08/07 10:26:00;;;;;;;1.10;1.00;;;;;;;26.39;65.45;100062.31;1662335;85;21273;-93
2021/08/07 10:28:28;;;;;;;1.07;0.98;;;;;;;26.27;65.18;100076.68;1603161;87;21652;-92
2021/08/07 10:30:58;;;;;;;1.60;1.00;;;;;;;26.11;66.66;100075.61;1634463;86;21502;-94
2021/08/07 10:33:26;;;;;;;1.05;0.90;;;;;;;26.16;67.46;100065.42;1656223;86;21572;-92
2021/08/07 10:35:55;;;;;;;1.20;1.10;;;;;;;26.37;66.81;100056.30;1644595;86;21098;-93
2021/08/07 10:38:23;;;;;;;1.55;1.45;;;;;;;26.66;68.45;100047.98;1628013;86;21572;-94
2021/08/07 10:40:50;;;;;;;1.50;1.40;;;;;;;26.97;65.82;100047.17;1627960;88;21073;-92
2021/08/07 10:43:18;;;;;;;1.30;1.20;;;;;;;27.16;65.04;100052.98;1628892;88;21092;-92
2021/08/07 10:45:46;;;;;;;1.20;1.10;;;;;;;27.24;64.58;100046.18;1631968;86;21154;-92
2021/08/07 10:48:44;;;;;;;2.05;0.82;;;;;;;27.31;63.38;100049.58;1658862;86;21134;-94
2021/08/07 10:51:29;;;;;;;0.78;0.78;;;;;;;27.39;62.26;100041.34;1659781;86;21563;-93
2021/08/07 10:54:09;;;;;;;1.12;1.02;;;;;;;27.41;62.55;100035.34;1633044;87;21064;-92
2021/08/07 10:56:45;;;;;;;1.22;1.12;;;;;;;27.44;61.82;100033.13;1613028;87;21108;-93
2021/08/07 10:59:17;;;;;;;2.58;1.00;;;;;;;27.55;63.16;100017.68;1644310;87;21094;-93
2021/08/07 11:01:50;;;;;;;1.27;0.90;;;;;;;27.62;61.09;100016.23;1645397;87;21141;-93
2021/08/07 11:04:32;;;;;;;1.40;0.85;;;;;;;27.67;58.78;100020.05;1666641;85;21085;-92
2021/08/07 11:07:05;;;;;;;1.47;0.85;;;;;;;27.64;58.83;100019.43;1652428;85;21103;-93
2021/08/07 11:09:40;;;;;;;1.25;0.90;;;;;;;27.50;58.51;100011.88;1647240;86;21140;-91
2021/08/07 11:12:15;;;;;;;0.72;0.72;;;;;;;27.41;57.74;100012.29;1651593;86;21381;-91
2021/08/07 11:14:53;;;;;;;0.60;0.60;;;;;;;27.37;57.67;99998.86;1655300;85;21755;-92
2021/08/07 11:17:28;;;;;;;0.50;0.50;;;;;;;27.34;55.04;99994.68;1660561;85;21095;-91
2021/08/07 11:20:07;;;;;;;0.95;0.90;;;;;;;27.24;56.94;99989.30;1667804;86;21148;-92
2021/08/07 11:22:44;;;;;;;0.95;0.95;;;;;;;27.18;57.39;99988.09;1655018;86;21081;-92
2021/08/07 11:25:21;;;;;;;0.98;0.88;;;;;;;27.08;54.89;100001.50;1653838;86;21066;-94
2021/08/07 11:27:58;;;;;;;0.78;0.78;;;;;;;26.94;55.96;100009.34;1638862;86;21144;-94
2021/08/07 11:30:29;;;;;;;0.70;0.70;;;;;;;26.85;55.32;100019.55;1635853;87;21144;-94
2021/08/07 11:33:04;;;;;;;0.98;0.88;;;;;;;26.82;55.69;100031.56;1674134;85;21050;-93
2021/08/07 11:35:38;;;;;;;0.78;0.62;;;;;;;26.83;55.91;100043.56;1661710;85;21260;-93
2021/08/07 11:38:22;;;;;;;1.12;0.90;;;;;;;26.88;55.17;100037.56;1660914;86;21082;-93
2021/08/07 11:41:02;;;;;;;1.10;0.90;;;;;;;26.92;57.15;100032.77;1658958;85;21303;-93
2021/08/07 11:43:40;;;;;;;0.88;0.65;;;;;;;26.95;57.86;100035.59;1665578;86;21511;-93
2021/08/07 11:46:12;;;;;;;0.75;0.75;;;;;;;26.90;57.48;100045.77;1635973;87;21058;-93